sensor_id;sensor_type;location;lat;lon;timestamp;temperature;humidity
43995;DHT22;51687;52.160;5.298;2022-07-01T00:00:44;23.80;53.10
43995;DHT22;51687;52.160;5.298;2022-07-01T00:03:11;23.80;53.10
43995;DHT22;51687;52.160;5.298;2022-07-01T00:05:37;23.80;52.90
43995;DHT22;51687;52.160;5.298;2022-07-01T00:08:04;23.80;53.10
43995;DHT22;51687;52.160;5.298;2022-07-01T00:10:31;23.80;53.00
43995;DHT22;51687;52.160;5.298;2022-07-01T00:12:58;23.80;53.00
43995;DHT22;51687;52.160;5.298;2022-07-01T00:15:24;23.80;52.90
43995;DHT22;51687;52.160;5.298;2022-07-01T00:17:51;23.80;53.10
43995;DHT22;51687;52.160;5.298;2022-07-01T00:20:18;23.80;53.20
43995;DHT22;51687;52.160;5.298;2022-07-01T00:22:45;23.80;53.40
43995;DHT22;51687;52.160;5.298;2022-07-01T00:25:12;23.70;53.30
43995;DHT22;51687;52.160;5.298;2022-07-01T00:27:40;23.80;53.20
43995;DHT22;51687;52.160;5.298;2022-07-01T00:30:08;23.70;53.10
43995;DHT22;51687;52.160;5.298;2022-07-01T00:32:36;23.80;53.30
43995;DHT22;51687;52.160;5.298;2022-07-01T00:35:03;23.70;53.30
43995;DHT22;51687;52.160;5.298;2022-07-01T00:37:29;23.70;53.20
43995;DHT22;51687;52.160;5.298;2022-07-01T00:39:56;23.70;53.20
43995;DHT22;51687;52.160;5.298;2022-07-01T00:42:23;23.70;53.60
43995;DHT22;51687;52.160;5.298;2022-07-01T00:44:50;23.70;53.40
43995;DHT22;51687;52.160;5.298;2022-07-01T00:47:17;23.70;53.50
43995;DHT22;51687;52.160;5.298;2022-07-01T00:49:44;23.70;53.50
43995;DHT22;51687;52.160;5.298;2022-07-01T00:52:11;23.70;53.70
43995;DHT22;51687;52.160;5.298;2022-07-01T00:54:38;23.70;53.60
43995;DHT22;51687;52.160;5.298;2022-07-01T00:57:10;23.70;53.70
43995;DHT22;51687;52.160;5.298;2022-07-01T00:59:38;23.70;53.70
43995;DHT22;51687;52.160;5.298;2022-07-01T01:02:09;23.70;53.70
43995;DHT22;51687;52.160;5.298;2022-07-01T01:04:36;23.70;53.90
43995;DHT22;51687;52.160;5.298;2022-07-01T01:07:04;23.70;53.90
43995;DHT22;51687;52.160;5.298;2022-07-01T01:09:30;23.70;53.60
43995;DHT22;51687;52.160;5.298;2022-07-01T01:11:57;23.60;53.70
43995;DHT22;51687;52.160;5.298;2022-07-01T01:14:25;23.60;53.50
43995;DHT22;51687;52.160;5.298;2022-07-01T01:16:52;23.60;53.70
43995;DHT22;51687;52.160;5.298;2022-07-01T01:19:19;23.60;53.50
43995;DHT22;51687;52.160;5.298;2022-07-01T01:21:46;23.50;53.70
43995;DHT22;51687;52.160;5.298;2022-07-01T01:24:13;23.60;53.70
43995;DHT22;51687;52.160;5.298;2022-07-01T01:26:40;23.50;53.50
43995;DHT22;51687;52.160;5.298;2022-07-01T01:29:07;23.50;53.70
43995;DHT22;51687;52.160;5.298;2022-07-01T01:31:34;23.50;53.50
43995;DHT22;51687;52.160;5.298;2022-07-01T01:34:03;23.50;53.80
43995;DHT22;51687;52.160;5.298;2022-07-01T01:36:30;23.50;53.70
43995;DHT22;51687;52.160;5.298;2022-07-01T01:38:57;23.50;53.80
43995;DHT22;51687;52.160;5.298;2022-07-01T01:41:33;23.50;53.50
43995;DHT22;51687;52.160;5.298;2022-07-01T01:44:00;23.50;53.40
43995;DHT22;51687;52.160;5.298;2022-07-01T01:46:27;23.50;53.70
43995;DHT22;51687;52.160;5.298;2022-07-01T01:48:56;23.50;53.40
43995;DHT22;51687;52.160;5.298;2022-07-01T01:51:23;23.50;53.30
43995;DHT22;51687;52.160;5.298;2022-07-01T01:53:50;23.40;53.10
43995;DHT22;51687;52.160;5.298;2022-07-01T01:56:16;23.40;53.30
43995;DHT22;51687;52.160;5.298;2022-07-01T01:58:43;23.40;53.40
43995;DHT22;51687;52.160;5.298;2022-07-01T02:01:11;23.40;53.20
43995;DHT22;51687;52.160;5.298;2022-07-01T02:03:40;23.40;53.20
43995;DHT22;51687;52.160;5.298;2022-07-01T02:06:08;23.40;53.30
43995;DHT22;51687;52.160;5.298;2022-07-01T02:08:38;23.40;53.20
43995;DHT22;51687;52.160;5.298;2022-07-01T02:11:06;23.40;53.00
43995;DHT22;51687;52.160;5.298;2022-07-01T02:13:33;23.40;53.00
43995;DHT22;51687;52.160;5.298;2022-07-01T02:15:59;23.40;52.70
43995;DHT22;51687;52.160;5.298;2022-07-01T02:18:27;23.40;52.70
43995;DHT22;51687;52.160;5.298;2022-07-01T02:20:54;23.40;52.90
43995;DHT22;51687;52.160;5.298;2022-07-01T02:23:21;23.40;52.70
43995;DHT22;51687;52.160;5.298;2022-07-01T02:25:48;23.40;52.50
43995;DHT22;51687;52.160;5.298;2022-07-01T02:28:15;23.40;52.50
43995;DHT22;51687;52.160;5.298;2022-07-01T02:30:42;23.40;52.70
43995;DHT22;51687;52.160;5.298;2022-07-01T02:33:09;23.40;52.70
43995;DHT22;51687;52.160;5.298;2022-07-01T02:35:38;23.40;52.60
43995;DHT22;51687;52.160;5.298;2022-07-01T02:38:06;23.30;52.20
43995;DHT22;51687;52.160;5.298;2022-07-01T02:40:35;23.40;52.30
43995;DHT22;51687;52.160;5.298;2022-07-01T02:43:07;23.30;52.40
43995;DHT22;51687;52.160;5.298;2022-07-01T02:45:33;23.30;52.30
43995;DHT22;51687;52.160;5.298;2022-07-01T02:48:00;23.30;52.10
43995;DHT22;51687;52.160;5.298;2022-07-01T02:50:30;23.30;52.20
43995;DHT22;51687;52.160;5.298;2022-07-01T02:52:57;23.30;52.40
43995;DHT22;51687;52.160;5.298;2022-07-01T02:55:24;23.30;52.20
43995;DHT22;51687;52.160;5.298;2022-07-01T02:57:50;23.30;52.20
43995;DHT22;51687;52.160;5.298;2022-07-01T03:00:20;23.30;52.20
43995;DHT22;51687;52.160;5.298;2022-07-01T03:02:47;23.30;52.30
43995;DHT22;51687;52.160;5.298;2022-07-01T03:05:14;23.30;52.20
43995;DHT22;51687;52.160;5.298;2022-07-01T03:07:42;23.30;52.10
43995;DHT22;51687;52.160;5.298;2022-07-01T03:10:09;23.30;52.10
43995;DHT22;51687;52.160;5.298;2022-07-01T03:12:37;23.30;52.10
43995;DHT22;51687;52.160;5.298;2022-07-01T03:17:35;23.30;52.10
43995;DHT22;51687;52.160;5.298;2022-07-01T03:20:06;23.20;52.00
43995;DHT22;51687;52.160;5.298;2022-07-01T03:22:34;23.20;52.00
43995;DHT22;51687;52.160;5.298;2022-07-01T03:25:02;23.20;52.10
43995;DHT22;51687;52.160;5.298;2022-07-01T03:27:29;23.20;52.00
43995;DHT22;51687;52.160;5.298;2022-07-01T03:29:56;23.20;53.10
43995;DHT22;51687;52.160;5.298;2022-07-01T03:32:23;23.20;52.30
43995;DHT22;51687;52.160;5.298;2022-07-01T03:34:51;23.20;52.10
43995;DHT22;51687;52.160;5.298;2022-07-01T03:37:19;23.20;52.10
43995;DHT22;51687;52.160;5.298;2022-07-01T03:39:46;23.20;52.70
43995;DHT22;51687;52.160;5.298;2022-07-01T03:42:13;23.20;52.30
43995;DHT22;51687;52.160;5.298;2022-07-01T03:44:40;23.20;52.30
43995;DHT22;51687;52.160;5.298;2022-07-01T03:47:07;23.10;52.10
43995;DHT22;51687;52.160;5.298;2022-07-01T03:49:35;23.10;52.30
43995;DHT22;51687;52.160;5.298;2022-07-01T03:52:05;23.10;52.30
43995;DHT22;51687;52.160;5.298;2022-07-01T03:54:32;23.10;52.20
43995;DHT22;51687;52.160;5.298;2022-07-01T03:57:00;23.10;52.30
43995;DHT22;51687;52.160;5.298;2022-07-01T03:59:29;23.10;52.20
43995;DHT22;51687;52.160;5.298;2022-07-01T04:01:57;23.10;52.50
43995;DHT22;51687;52.160;5.298;2022-07-01T04:04:25;23.10;52.40
43995;DHT22;51687;52.160;5.298;2022-07-01T04:06:57;23.00;52.30
43995;DHT22;51687;52.160;5.298;2022-07-01T04:09:24;23.10;52.40
43995;DHT22;51687;52.160;5.298;2022-07-01T04:11:52;23.00;52.40
43995;DHT22;51687;52.160;5.298;2022-07-01T04:14:20;23.00;52.50
43995;DHT22;51687;52.160;5.298;2022-07-01T04:16:47;23.00;52.50
43995;DHT22;51687;52.160;5.298;2022-07-01T04:19:14;23.00;52.50
43995;DHT22;51687;52.160;5.298;2022-07-01T04:21:41;23.00;52.60
43995;DHT22;51687;52.160;5.298;2022-07-01T04:24:26;23.00;52.70
43995;DHT22;51687;52.160;5.298;2022-07-01T04:26:55;23.00;52.70
43995;DHT22;51687;52.160;5.298;2022-07-01T04:29:22;23.00;52.70
43995;DHT22;51687;52.160;5.298;2022-07-01T04:31:48;22.90;52.70
43995;DHT22;51687;52.160;5.298;2022-07-01T04:34:15;22.90;52.60
43995;DHT22;51687;52.160;5.298;2022-07-01T04:36:42;22.90;52.80
43995;DHT22;51687;52.160;5.298;2022-07-01T04:39:09;22.90;53.00
43995;DHT22;51687;52.160;5.298;2022-07-01T04:41:35;22.90;52.90
43995;DHT22;51687;52.160;5.298;2022-07-01T04:44:21;22.90;52.90
43995;DHT22;51687;52.160;5.298;2022-07-01T04:46:49;22.90;53.00
43995;DHT22;51687;52.160;5.298;2022-07-01T04:49:16;22.90;52.80
43995;DHT22;51687;52.160;5.298;2022-07-01T04:51:42;22.80;52.90
43995;DHT22;51687;52.160;5.298;2022-07-01T04:54:09;22.80;53.10
43995;DHT22;51687;52.160;5.298;2022-07-01T04:56:37;22.80;53.00
43995;DHT22;51687;52.160;5.298;2022-07-01T04:59:10;22.80;53.00
43995;DHT22;51687;52.160;5.298;2022-07-01T05:01:37;22.80;53.20
43995;DHT22;51687;52.160;5.298;2022-07-01T05:04:04;22.80;53.90
43995;DHT22;51687;52.160;5.298;2022-07-01T05:06:31;22.70;53.30
43995;DHT22;51687;52.160;5.298;2022-07-01T05:08:58;22.70;53.40
43995;DHT22;51687;52.160;5.298;2022-07-01T05:11:25;22.70;53.60
43995;DHT22;51687;52.160;5.298;2022-07-01T05:13:51;22.60;53.80
43995;DHT22;51687;52.160;5.298;2022-07-01T05:21:32;22.60;54.00
43995;DHT22;51687;52.160;5.298;2022-07-01T05:24:17;22.60;54.10
43995;DHT22;51687;52.160;5.298;2022-07-01T05:26:45;22.60;55.10
43995;DHT22;51687;52.160;5.298;2022-07-01T05:29:12;22.60;54.60
43995;DHT22;51687;52.160;5.298;2022-07-01T05:31:39;22.60;54.80
43995;DHT22;51687;52.160;5.298;2022-07-01T05:34:06;22.60;54.80
43995;DHT22;51687;52.160;5.298;2022-07-01T05:36:34;22.60;54.80
43995;DHT22;51687;52.160;5.298;2022-07-01T05:39:01;22.60;54.90
43995;DHT22;51687;52.160;5.298;2022-07-01T05:41:28;22.50;55.00
43995;DHT22;51687;52.160;5.298;2022-07-01T05:43:55;22.50;55.40
43995;DHT22;51687;52.160;5.298;2022-07-01T05:46:22;22.50;55.50
43995;DHT22;51687;52.160;5.298;2022-07-01T05:48:49;22.50;55.80
43995;DHT22;51687;52.160;5.298;2022-07-01T05:51:16;22.50;55.60
43995;DHT22;51687;52.160;5.298;2022-07-01T05:53:43;22.40;55.70
43995;DHT22;51687;52.160;5.298;2022-07-01T05:56:10;22.40;55.90
43995;DHT22;51687;52.160;5.298;2022-07-01T05:58:36;22.30;56.20
43995;DHT22;51687;52.160;5.298;2022-07-01T06:01:03;22.30;56.30
43995;DHT22;51687;52.160;5.298;2022-07-01T06:03:35;22.20;56.20
43995;DHT22;51687;52.160;5.298;2022-07-01T06:06:02;22.20;56.40
43995;DHT22;51687;52.160;5.298;2022-07-01T06:08:29;22.20;56.60
43995;DHT22;51687;52.160;5.298;2022-07-01T06:10:56;22.10;57.00
43995;DHT22;51687;52.160;5.298;2022-07-01T06:13:22;22.10;57.10
43995;DHT22;51687;52.160;5.298;2022-07-01T06:15:49;22.10;57.10
43995;DHT22;51687;52.160;5.298;2022-07-01T06:18:16;22.00;57.10
43995;DHT22;51687;52.160;5.298;2022-07-01T06:20:43;22.00;57.70
43995;DHT22;51687;52.160;5.298;2022-07-01T06:23:10;21.90;57.60
43995;DHT22;51687;52.160;5.298;2022-07-01T06:25:36;21.90;58.00
43995;DHT22;51687;52.160;5.298;2022-07-01T06:28:03;21.80;58.10
43995;DHT22;51687;52.160;5.298;2022-07-01T06:30:30;21.80;58.10
43995;DHT22;51687;52.160;5.298;2022-07-01T06:32:57;21.80;58.70
43995;DHT22;51687;52.160;5.298;2022-07-01T06:35:23;21.80;58.80
43995;DHT22;51687;52.160;5.298;2022-07-01T06:37:50;21.80;59.00
43995;DHT22;51687;52.160;5.298;2022-07-01T06:40:23;21.70;58.80
43995;DHT22;51687;52.160;5.298;2022-07-01T06:42:50;21.80;58.90
43995;DHT22;51687;52.160;5.298;2022-07-01T06:45:17;21.80;59.10
43995;DHT22;51687;52.160;5.298;2022-07-01T06:47:44;21.70;59.10
43995;DHT22;51687;52.160;5.298;2022-07-01T06:55:08;21.70;59.00
43995;DHT22;51687;52.160;5.298;2022-07-01T06:57:34;21.50;60.20
43995;DHT22;51687;52.160;5.298;2022-07-01T07:07:27;21.40;61.10
43995;DHT22;51687;52.160;5.298;2022-07-01T07:10:00;21.20;62.00
43995;DHT22;51687;52.160;5.298;2022-07-01T07:12:26;21.20;62.20
43995;DHT22;51687;52.160;5.298;2022-07-01T07:14:53;21.10;62.10
43995;DHT22;51687;52.160;5.298;2022-07-01T07:17:20;21.10;63.00
43995;DHT22;51687;52.160;5.298;2022-07-01T07:19:47;21.10;63.50
43995;DHT22;51687;52.160;5.298;2022-07-01T07:22:14;21.10;63.70
43995;DHT22;51687;52.160;5.298;2022-07-01T07:24:40;21.00;63.40
43995;DHT22;51687;52.160;5.298;2022-07-01T07:27:08;21.00;63.60
43995;DHT22;51687;52.160;5.298;2022-07-01T07:29:35;21.00;62.40
43995;DHT22;51687;52.160;5.298;2022-07-01T07:32:02;21.00;61.70
43995;DHT22;51687;52.160;5.298;2022-07-01T07:34:28;20.90;61.80
43995;DHT22;51687;52.160;5.298;2022-07-01T07:36:57;20.90;62.50
43995;DHT22;51687;52.160;5.298;2022-07-01T07:39:24;20.90;63.00
43995;DHT22;51687;52.160;5.298;2022-07-01T07:41:58;20.80;63.30
43995;DHT22;51687;52.160;5.298;2022-07-01T07:44:25;20.80;63.10
43995;DHT22;51687;52.160;5.298;2022-07-01T07:46:52;20.70;63.30
43995;DHT22;51687;52.160;5.298;2022-07-01T07:49:18;20.70;62.80
43995;DHT22;51687;52.160;5.298;2022-07-01T07:51:46;20.70;62.20
43995;DHT22;51687;52.160;5.298;2022-07-01T07:54:13;20.70;62.40
43995;DHT22;51687;52.160;5.298;2022-07-01T07:56:40;20.60;63.30
43995;DHT22;51687;52.160;5.298;2022-07-01T07:59:11;20.60;62.40
43995;DHT22;51687;52.160;5.298;2022-07-01T08:01:38;20.60;61.90
43995;DHT22;51687;52.160;5.298;2022-07-01T08:04:04;20.50;63.40
43995;DHT22;51687;52.160;5.298;2022-07-01T08:06:31;20.50;63.20
43995;DHT22;51687;52.160;5.298;2022-07-01T08:08:58;20.50;62.70
43995;DHT22;51687;52.160;5.298;2022-07-01T08:11:25;20.50;63.20
43995;DHT22;51687;52.160;5.298;2022-07-01T08:13:52;20.60;63.70
43995;DHT22;51687;52.160;5.298;2022-07-01T08:16:18;20.60;62.40
43995;DHT22;51687;52.160;5.298;2022-07-01T08:18:46;20.60;63.30
43995;DHT22;51687;52.160;5.298;2022-07-01T08:21:13;20.70;62.70
43995;DHT22;51687;52.160;5.298;2022-07-01T08:23:40;20.60;62.80
43995;DHT22;51687;52.160;5.298;2022-07-01T08:26:06;20.60;61.80
43995;DHT22;51687;52.160;5.298;2022-07-01T08:28:33;20.60;61.90
43995;DHT22;51687;52.160;5.298;2022-07-01T08:31:00;20.60;61.70
43995;DHT22;51687;52.160;5.298;2022-07-01T08:33:27;20.60;62.40
43995;DHT22;51687;52.160;5.298;2022-07-01T08:35:54;20.60;60.80
43995;DHT22;51687;52.160;5.298;2022-07-01T08:38:20;20.70;60.90
43995;DHT22;51687;52.160;5.298;2022-07-01T08:40:49;20.60;60.60
43995;DHT22;51687;52.160;5.298;2022-07-01T08:43:20;20.70;60.50
43995;DHT22;51687;52.160;5.298;2022-07-01T08:45:47;20.60;61.80
43995;DHT22;51687;52.160;5.298;2022-07-01T08:48:17;20.70;61.80
43995;DHT22;51687;52.160;5.298;2022-07-01T08:50:44;20.70;61.50
43995;DHT22;51687;52.160;5.298;2022-07-01T08:53:12;20.70;60.60
43995;DHT22;51687;52.160;5.298;2022-07-01T08:55:39;20.70;59.30
43995;DHT22;51687;52.160;5.298;2022-07-01T08:58:28;20.70;59.00
43995;DHT22;51687;52.160;5.298;2022-07-01T09:01:21;20.70;58.40
43995;DHT22;51687;52.160;5.298;2022-07-01T09:03:51;20.60;59.10
43995;DHT22;51687;52.160;5.298;2022-07-01T09:06:21;20.60;59.50
43995;DHT22;51687;52.160;5.298;2022-07-01T09:08:48;20.60;59.10
43995;DHT22;51687;52.160;5.298;2022-07-01T09:11:20;20.60;58.30
43995;DHT22;51687;52.160;5.298;2022-07-01T09:14:11;20.60;58.00
43995;DHT22;51687;52.160;5.298;2022-07-01T09:17:04;20.60;57.10
43995;DHT22;51687;52.160;5.298;2022-07-01T09:19:35;20.50;57.20
43995;DHT22;51687;52.160;5.298;2022-07-01T09:22:10;20.50;58.20
43995;DHT22;51687;52.160;5.298;2022-07-01T09:24:42;20.50;59.90
43995;DHT22;51687;52.160;5.298;2022-07-01T09:27:12;20.60;57.80
43995;DHT22;51687;52.160;5.298;2022-07-01T09:29:54;20.60;58.90
43995;DHT22;51687;52.160;5.298;2022-07-01T09:32:22;20.60;59.40
43995;DHT22;51687;52.160;5.298;2022-07-01T09:34:50;20.60;58.80
43995;DHT22;51687;52.160;5.298;2022-07-01T09:37:22;20.60;58.50
43995;DHT22;51687;52.160;5.298;2022-07-01T09:39:51;20.70;57.80
43995;DHT22;51687;52.160;5.298;2022-07-01T09:42:24;20.70;57.90
43995;DHT22;51687;52.160;5.298;2022-07-01T09:45:05;20.70;57.10
43995;DHT22;51687;52.160;5.298;2022-07-01T09:47:40;20.70;55.40
43995;DHT22;51687;52.160;5.298;2022-07-01T09:50:08;20.70;52.10
43995;DHT22;51687;52.160;5.298;2022-07-01T09:52:36;20.70;50.20
43995;DHT22;51687;52.160;5.298;2022-07-01T09:55:06;20.70;52.30
43995;DHT22;51687;52.160;5.298;2022-07-01T09:57:33;20.70;54.50
43995;DHT22;51687;52.160;5.298;2022-07-01T10:00:00;20.70;53.80
43995;DHT22;51687;52.160;5.298;2022-07-01T10:02:28;20.80;53.80
43995;DHT22;51687;52.160;5.298;2022-07-01T10:05:07;20.80;53.40
43995;DHT22;51687;52.160;5.298;2022-07-01T10:12:53;21.00;52.90
43995;DHT22;51687;52.160;5.298;2022-07-01T10:15:24;21.00;52.40
43995;DHT22;51687;52.160;5.298;2022-07-01T10:17:51;21.00;50.90
43995;DHT22;51687;52.160;5.298;2022-07-01T10:20:31;21.10;52.00
43995;DHT22;51687;52.160;5.298;2022-07-01T10:23:04;21.10;49.80
43995;DHT22;51687;52.160;5.298;2022-07-01T10:25:47;21.10;50.60
43995;DHT22;51687;52.160;5.298;2022-07-01T10:28:27;21.10;49.00
43995;DHT22;51687;52.160;5.298;2022-07-01T10:30:57;21.10;50.80
43995;DHT22;51687;52.160;5.298;2022-07-01T10:33:28;21.10;50.60
43995;DHT22;51687;52.160;5.298;2022-07-01T10:35:55;21.20;50.60
43995;DHT22;51687;52.160;5.298;2022-07-01T10:38:22;21.20;49.50
43995;DHT22;51687;52.160;5.298;2022-07-01T10:40:49;21.20;50.00
43995;DHT22;51687;52.160;5.298;2022-07-01T10:43:17;21.30;51.40
43995;DHT22;51687;52.160;5.298;2022-07-01T10:45:59;21.40;50.30
43995;DHT22;51687;52.160;5.298;2022-07-01T10:48:26;21.40;49.70
43995;DHT22;51687;52.160;5.298;2022-07-01T10:50:56;21.40;48.30
43995;DHT22;51687;52.160;5.298;2022-07-01T10:53:23;21.50;48.80
43995;DHT22;51687;52.160;5.298;2022-07-01T10:55:52;21.50;47.20
43995;DHT22;51687;52.160;5.298;2022-07-01T10:58:36;21.50;49.70
43995;DHT22;51687;52.160;5.298;2022-07-01T11:01:04;21.60;48.90
43995;DHT22;51687;52.160;5.298;2022-07-01T11:03:35;21.60;50.50
43995;DHT22;51687;52.160;5.298;2022-07-01T11:06:03;21.70;49.30
43995;DHT22;51687;52.160;5.298;2022-07-01T11:08:30;21.70;48.00
43995;DHT22;51687;52.160;5.298;2022-07-01T11:10:59;21.70;46.80
43995;DHT22;51687;52.160;5.298;2022-07-01T11:13:28;21.70;47.10
43995;DHT22;51687;52.160;5.298;2022-07-01T11:15:59;21.70;46.80
43995;DHT22;51687;52.160;5.298;2022-07-01T11:18:29;21.80;47.10
43995;DHT22;51687;52.160;5.298;2022-07-01T11:21:09;21.80;47.50
43995;DHT22;51687;52.160;5.298;2022-07-01T11:23:39;21.70;47.10
43995;DHT22;51687;52.160;5.298;2022-07-01T11:26:24;21.70;47.40
43995;DHT22;51687;52.160;5.298;2022-07-01T11:28:51;21.70;47.00
43995;DHT22;51687;52.160;5.298;2022-07-01T11:31:31;21.70;46.80
43995;DHT22;51687;52.160;5.298;2022-07-01T11:33:59;21.80;47.20
43995;DHT22;51687;52.160;5.298;2022-07-01T11:36:26;21.80;44.80
43995;DHT22;51687;52.160;5.298;2022-07-01T11:39:11;21.80;44.60
43995;DHT22;51687;52.160;5.298;2022-07-01T11:41:57;21.80;44.30
43995;DHT22;51687;52.160;5.298;2022-07-01T11:44:39;21.80;45.10
43995;DHT22;51687;52.160;5.298;2022-07-01T11:47:22;21.80;47.10
43995;DHT22;51687;52.160;5.298;2022-07-01T11:49:49;21.90;46.70
43995;DHT22;51687;52.160;5.298;2022-07-01T11:52:17;21.90;46.90
43995;DHT22;51687;52.160;5.298;2022-07-01T11:54:46;22.00;46.30
43995;DHT22;51687;52.160;5.298;2022-07-01T11:57:14;22.00;46.90
43995;DHT22;51687;52.160;5.298;2022-07-01T11:59:43;22.00;45.70
43995;DHT22;51687;52.160;5.298;2022-07-01T12:02:12;22.00;45.10
43995;DHT22;51687;52.160;5.298;2022-07-01T12:04:40;22.00;47.10
43995;DHT22;51687;52.160;5.298;2022-07-01T12:07:08;22.10;47.80
43995;DHT22;51687;52.160;5.298;2022-07-01T12:09:37;22.20;47.00
43995;DHT22;51687;52.160;5.298;2022-07-01T12:12:06;22.20;47.10
43995;DHT22;51687;52.160;5.298;2022-07-01T12:14:35;22.20;45.20
43995;DHT22;51687;52.160;5.298;2022-07-01T12:17:06;22.20;44.90
43995;DHT22;51687;52.160;5.298;2022-07-01T12:19:40;22.30;44.40
43995;DHT22;51687;52.160;5.298;2022-07-01T12:22:10;22.30;44.60
43995;DHT22;51687;52.160;5.298;2022-07-01T12:24:37;22.30;44.10
43995;DHT22;51687;52.160;5.298;2022-07-01T12:27:06;22.30;43.00
43995;DHT22;51687;52.160;5.298;2022-07-01T12:32:21;22.30;45.20
43995;DHT22;51687;52.160;5.298;2022-07-01T12:34:55;22.40;42.50
43995;DHT22;51687;52.160;5.298;2022-07-01T12:37:35;22.40;44.30
43995;DHT22;51687;52.160;5.298;2022-07-01T12:40:21;22.40;42.30
43995;DHT22;51687;52.160;5.298;2022-07-01T12:42:48;22.40;42.00
43995;DHT22;51687;52.160;5.298;2022-07-01T12:45:17;22.40;43.00
43995;DHT22;51687;52.160;5.298;2022-07-01T12:47:52;22.40;43.10
43995;DHT22;51687;52.160;5.298;2022-07-01T12:50:25;22.40;43.60
43995;DHT22;51687;52.160;5.298;2022-07-01T12:53:03;22.40;44.40
43995;DHT22;51687;52.160;5.298;2022-07-01T12:55:37;22.40;45.60
43995;DHT22;51687;52.160;5.298;2022-07-01T12:58:08;22.40;45.40
43995;DHT22;51687;52.160;5.298;2022-07-01T13:00:35;22.40;45.40
43995;DHT22;51687;52.160;5.298;2022-07-01T13:03:04;22.40;45.50
43995;DHT22;51687;52.160;5.298;2022-07-01T13:05:32;22.40;46.30
43995;DHT22;51687;52.160;5.298;2022-07-01T13:08:00;22.40;46.90
43995;DHT22;51687;52.160;5.298;2022-07-01T13:10:27;22.40;46.60
43995;DHT22;51687;52.160;5.298;2022-07-01T13:12:54;22.30;46.50
43995;DHT22;51687;52.160;5.298;2022-07-01T13:15:22;22.30;47.20
43995;DHT22;51687;52.160;5.298;2022-07-01T13:17:49;22.30;46.80
43995;DHT22;51687;52.160;5.298;2022-07-01T13:20:16;22.30;47.20
43995;DHT22;51687;52.160;5.298;2022-07-01T13:22:44;22.20;48.50
43995;DHT22;51687;52.160;5.298;2022-07-01T13:25:12;22.30;48.30
43995;DHT22;51687;52.160;5.298;2022-07-01T13:27:39;22.30;48.80
43995;DHT22;51687;52.160;5.298;2022-07-01T13:30:08;22.30;47.80
43995;DHT22;51687;52.160;5.298;2022-07-01T13:32:35;22.30;48.50
43995;DHT22;51687;52.160;5.298;2022-07-01T13:35:03;22.30;48.20
43995;DHT22;51687;52.160;5.298;2022-07-01T13:37:33;22.30;47.90
43995;DHT22;51687;52.160;5.298;2022-07-01T13:39:59;22.30;47.30
43995;DHT22;51687;52.160;5.298;2022-07-01T13:42:26;22.30;47.70
43995;DHT22;51687;52.160;5.298;2022-07-01T13:44:53;22.30;46.10
43995;DHT22;51687;52.160;5.298;2022-07-01T13:47:20;22.30;46.80
43995;DHT22;51687;52.160;5.298;2022-07-01T13:49:47;22.30;46.80
43995;DHT22;51687;52.160;5.298;2022-07-01T13:52:14;22.30;46.60
43995;DHT22;51687;52.160;5.298;2022-07-01T13:54:41;22.30;48.10
43995;DHT22;51687;52.160;5.298;2022-07-01T13:57:08;22.30;47.60
43995;DHT22;51687;52.160;5.298;2022-07-01T13:59:35;22.30;46.90
43995;DHT22;51687;52.160;5.298;2022-07-01T14:02:07;22.30;47.20
43995;DHT22;51687;52.160;5.298;2022-07-01T14:04:34;22.30;47.30
43995;DHT22;51687;52.160;5.298;2022-07-01T14:07:01;22.30;47.20
43995;DHT22;51687;52.160;5.298;2022-07-01T14:09:28;22.30;48.30
43995;DHT22;51687;52.160;5.298;2022-07-01T14:11:55;22.30;47.00
43995;DHT22;51687;52.160;5.298;2022-07-01T14:14:22;22.40;47.60
43995;DHT22;51687;52.160;5.298;2022-07-01T14:16:49;22.30;47.50
43995;DHT22;51687;52.160;5.298;2022-07-01T14:19:15;22.40;47.40
43995;DHT22;51687;52.160;5.298;2022-07-01T14:21:42;22.40;48.20
43995;DHT22;51687;52.160;5.298;2022-07-01T14:24:09;22.40;48.00
43995;DHT22;51687;52.160;5.298;2022-07-01T14:26:36;22.40;47.30
43995;DHT22;51687;52.160;5.298;2022-07-01T14:29:03;22.40;46.80
43995;DHT22;51687;52.160;5.298;2022-07-01T14:31:29;22.40;46.30
43995;DHT22;51687;52.160;5.298;2022-07-01T14:33:56;22.40;46.60
43995;DHT22;51687;52.160;5.298;2022-07-01T14:36:23;22.40;46.10
43995;DHT22;51687;52.160;5.298;2022-07-01T14:38:50;22.30;46.10
43995;DHT22;51687;52.160;5.298;2022-07-01T14:41:16;22.30;45.60
43995;DHT22;51687;52.160;5.298;2022-07-01T14:43:44;22.30;46.00
43995;DHT22;51687;52.160;5.298;2022-07-01T14:46:11;22.30;46.00
43995;DHT22;51687;52.160;5.298;2022-07-01T14:48:41;22.40;47.10
43995;DHT22;51687;52.160;5.298;2022-07-01T14:51:07;22.40;46.80
43995;DHT22;51687;52.160;5.298;2022-07-01T14:53:34;22.40;46.20
43995;DHT22;51687;52.160;5.298;2022-07-01T14:56:02;22.30;46.10
43995;DHT22;51687;52.160;5.298;2022-07-01T14:58:29;22.30;46.10
43995;DHT22;51687;52.160;5.298;2022-07-01T15:00:55;22.30;45.60
43995;DHT22;51687;52.160;5.298;2022-07-01T15:03:22;22.40;46.00
43995;DHT22;51687;52.160;5.298;2022-07-01T15:05:49;22.40;45.10
43995;DHT22;51687;52.160;5.298;2022-07-01T15:08:20;22.40;45.60
43995;DHT22;51687;52.160;5.298;2022-07-01T15:10:46;22.40;47.30
43995;DHT22;51687;52.160;5.298;2022-07-01T15:13:15;22.40;46.90
43995;DHT22;51687;52.160;5.298;2022-07-01T15:15:43;22.40;46.40
43995;DHT22;51687;52.160;5.298;2022-07-01T15:18:10;22.40;45.00
43995;DHT22;51687;52.160;5.298;2022-07-01T15:20:40;22.40;45.40
43995;DHT22;51687;52.160;5.298;2022-07-01T15:23:06;22.40;45.40
43995;DHT22;51687;52.160;5.298;2022-07-01T15:25:35;22.40;46.20
43995;DHT22;51687;52.160;5.298;2022-07-01T15:28:01;22.50;46.50
43995;DHT22;51687;52.160;5.298;2022-07-01T15:30:28;22.50;46.80
43995;DHT22;51687;52.160;5.298;2022-07-01T15:32:55;22.60;46.10
43995;DHT22;51687;52.160;5.298;2022-07-01T15:35:22;22.50;45.80
43995;DHT22;51687;52.160;5.298;2022-07-01T15:37:49;22.60;46.10
43995;DHT22;51687;52.160;5.298;2022-07-01T15:40:16;22.60;45.50
43995;DHT22;51687;52.160;5.298;2022-07-01T15:42:43;22.60;44.90
43995;DHT22;51687;52.160;5.298;2022-07-01T15:45:10;22.60;45.00
43995;DHT22;51687;52.160;5.298;2022-07-01T15:47:37;22.60;46.30
43995;DHT22;51687;52.160;5.298;2022-07-01T15:50:22;22.60;46.10
43995;DHT22;51687;52.160;5.298;2022-07-01T15:52:50;22.60;45.90
43995;DHT22;51687;52.160;5.298;2022-07-01T15:55:17;22.60;46.40
43995;DHT22;51687;52.160;5.298;2022-07-01T15:57:45;22.60;45.50
43995;DHT22;51687;52.160;5.298;2022-07-01T16:00:20;22.60;46.10
43995;DHT22;51687;52.160;5.298;2022-07-01T16:02:47;22.50;46.00
43995;DHT22;51687;52.160;5.298;2022-07-01T16:05:14;22.50;46.00
43995;DHT22;51687;52.160;5.298;2022-07-01T16:07:42;22.50;45.00